createdAt,value
2023-01-06T00:01:51.777Z,101229.28
2023-01-06T00:04:21.312Z,101233.72
2023-01-06T00:06:53.478Z,101230.41
2023-01-06T00:09:22.953Z,101232.19
2023-01-06T00:11:52.758Z,101231.09
2023-01-06T00:14:22.231Z,101228.97
2023-01-06T00:16:52.640Z,101235.78
2023-01-06T00:19:22.246Z,101225.31
2023-01-06T00:21:54.289Z,101223.09
2023-01-06T00:24:23.762Z,101224.44
2023-01-06T00:26:53.289Z,101217.19
2023-01-06T00:29:22.773Z,101215.72
2023-01-06T00:31:52.297Z,101205.06
2023-01-06T00:34:21.788Z,101204.25
2023-01-06T00:36:53.916Z,101200.91
2023-01-06T00:39:23.370Z,101202.38
2023-01-06T00:42:07.803Z,101201.59
2023-01-06T00:44:38.763Z,101205.50
2023-01-06T00:47:09.641Z,101204.03
2023-01-06T00:49:39.743Z,101192.81
2023-01-06T00:52:11.967Z,101187.81
2023-01-06T00:54:41.750Z,101182.34
2023-01-06T00:57:11.452Z,101183.78
2023-01-06T00:59:41.152Z,101182.63
2023-01-06T01:02:10.725Z,101185.56
2023-01-06T01:04:40.337Z,101179.47
2023-01-06T01:07:12.429Z,101178.66
2023-01-06T01:09:41.965Z,101175.88
2023-01-06T01:12:14.162Z,101176.91
2023-01-06T01:14:47.145Z,101175.63
2023-01-06T01:17:20.237Z,101175.00
2023-01-06T01:19:50.403Z,101167.09
2023-01-06T01:22:22.676Z,101171.84
2023-01-06T01:24:52.085Z,101168.13
2023-01-06T01:27:21.887Z,101163.09
2023-01-06T01:29:51.349Z,101153.06
2023-01-06T01:32:21.026Z,101150.03
2023-01-06T01:34:50.429Z,101142.03
2023-01-06T01:37:22.491Z,101147.16
2023-01-06T01:39:51.944Z,101143.28
2023-01-06T01:42:23.111Z,101139.69
2023-01-06T01:45:01.902Z,101136.94
2023-01-06T01:47:46.481Z,101142.72
2023-01-06T01:50:31.303Z,101141.63
2023-01-06T01:53:06.063Z,101136.56
2023-01-06T01:55:35.998Z,101149.03
2023-01-06T01:58:09.668Z,101144.78
2023-01-06T02:00:39.578Z,101134.00
2023-01-06T02:03:09.283Z,101136.38
2023-01-06T02:05:41.431Z,101133.25
2023-01-06T02:08:19.157Z,101125.91
2023-01-06T02:10:48.587Z,101119.88
2023-01-06T02:13:19.101Z,101114.88
2023-01-06T02:15:48.649Z,101119.09
2023-01-06T02:18:40.826Z,101109.22
2023-01-06T02:21:18.504Z,101111.00
2023-01-06T02:24:24.563Z,101122.59
2023-01-06T02:27:22.022Z,101119.28
2023-01-06T02:30:29.321Z,101115.25
2023-01-06T02:33:11.357Z,101120.13
2023-01-06T02:35:53.678Z,101109.59
2023-01-06T02:38:31.640Z,101112.75
2023-01-06T02:41:11.005Z,101100.63
2023-01-06T02:43:49.004Z,101103.16
2023-01-06T02:46:27.977Z,101097.81
2023-01-06T02:49:10.638Z,101094.16
2023-01-06T02:51:47.169Z,101090.31
2023-01-06T02:54:22.879Z,101085.13
2023-01-06T02:56:56.017Z,101079.13
2023-01-06T02:59:27.849Z,101069.47
2023-01-06T03:01:57.912Z,101073.09
2023-01-06T03:04:34.556Z,101070.84
2023-01-06T03:07:05.306Z,101066.34
2023-01-06T03:09:37.355Z,101059.38
2023-01-06T03:12:10.495Z,101061.22
2023-01-06T03:14:42.165Z,101058.47
2023-01-06T03:17:11.657Z,101065.84
2023-01-06T03:19:43.821Z,101070.25
2023-01-06T03:22:14.097Z,101071.47
2023-01-06T03:24:43.709Z,101073.41
2023-01-06T03:27:13.206Z,101067.94
2023-01-06T03:29:42.855Z,101069.06
2023-01-06T03:32:15.771Z,101059.88
2023-01-06T03:35:04.117Z,101054.63
2023-01-06T03:37:39.386Z,101043.50
2023-01-06T03:40:14.447Z,101031.69
2023-01-06T03:43:00.296Z,101030.91
2023-01-06T03:45:45.008Z,101030.69
2023-01-06T03:48:21.176Z,101031.69
2023-01-06T03:51:02.670Z,101034.34
2023-01-06T03:53:37.833Z,101030.50
2023-01-06T03:56:15.155Z,101029.13
2023-01-06T03:58:44.972Z,101032.47
2023-01-06T04:01:15.063Z,101027.91
2023-01-06T04:03:47.887Z,101020.81
2023-01-06T04:06:19.911Z,101019.84
2023-01-06T04:08:49.360Z,101007.25
2023-01-06T04:11:31.018Z,101012.53
2023-01-06T04:14:00.454Z,101015.22
2023-01-06T04:16:29.913Z,101009.56
2023-01-06T04:18:59.344Z,101007.09
2023-01-06T04:21:31.465Z,100981.38
2023-01-06T04:24:00.983Z,100974.06
2023-01-06T04:26:30.509Z,100968.72
2023-01-06T04:29:00.030Z,100962.78
2023-01-06T04:31:29.514Z,100957.13
2023-01-06T04:33:58.889Z,100953.34
2023-01-06T04:36:30.853Z,100944.78
2023-01-06T04:39:00.219Z,100941.75
2023-01-06T04:41:29.640Z,100939.50
2023-01-06T04:43:59.084Z,100929.31
2023-01-06T04:46:28.431Z,100922.53
2023-01-06T04:48:57.836Z,100911.72
2023-01-06T04:51:27.552Z,100908.91
2023-01-06T04:53:59.637Z,100894.78
2023-01-06T04:56:29.119Z,100899.19
2023-01-06T04:58:59.873Z,100894.44
2023-01-06T05:01:30.079Z,100895.50
2023-01-06T05:03:59.967Z,100889.72
2023-01-06T05:06:29.334Z,100893.19
2023-01-06T05:09:01.399Z,100888.56
2023-01-06T05:11:30.950Z,100881.59
2023-01-06T05:14:01.132Z,100878.31
2023-01-06T05:16:33.025Z,100869.81
2023-01-06T05:19:03.184Z,100858.31
2023-01-06T05:21:36.105Z,100847.75
2023-01-06T05:24:08.470Z,100834.41
2023-01-06T05:26:37.867Z,100823.31
2023-01-06T05:29:07.291Z,100817.56
2023-01-06T05:31:36.739Z,100812.59
2023-01-06T05:34:06.153Z,100808.34
2023-01-06T05:36:35.537Z,100803.34
2023-01-06T05:39:05.049Z,100803.28
2023-01-06T05:41:37.101Z,100800.16
2023-01-06T05:44:07.012Z,100800.16
2023-01-06T05:46:36.400Z,100794.00
2023-01-06T05:49:05.994Z,100799.13
2023-01-06T05:51:35.415Z,100794.06
2023-01-06T05:54:04.770Z,100794.13
2023-01-06T05:56:36.979Z,100787.41
2023-01-06T05:59:06.574Z,100791.81
2023-01-06T06:01:36.111Z,100796.88
2023-01-06T06:04:05.776Z,100799.44
2023-01-06T06:06:35.240Z,100802.09
2023-01-06T06:09:05.074Z,100805.53
2023-01-06T06:11:37.095Z,100807.16
2023-01-06T06:14:06.515Z,100808.03
2023-01-06T06:16:35.942Z,100803.78
2023-01-06T06:19:05.352Z,100791.81
2023-01-06T06:21:35.023Z,100795.38
2023-01-06T06:24:04.441Z,100782.44
2023-01-06T06:26:34.030Z,100797.03
2023-01-06T06:29:08.180Z,100787.47
2023-01-06T06:31:37.760Z,100788.38
2023-01-06T06:34:07.971Z,100786.63
2023-01-06T06:36:37.359Z,100770.41
2023-01-06T06:39:07.035Z,100767.22
2023-01-06T06:41:36.429Z,100770.72
2023-01-06T06:44:09.399Z,100789.50
2023-01-06T06:46:38.896Z,100801.47
2023-01-06T06:49:08.498Z,100812.69
2023-01-06T06:51:37.900Z,100813.44
2023-01-06T06:54:07.879Z,100826.34
2023-01-06T06:56:37.270Z,100828.19
2023-01-06T06:59:09.578Z,100825.47
2023-01-06T07:01:39.071Z,100830.66
2023-01-06T07:04:09.699Z,100824.81
2023-01-06T07:06:39.231Z,100829.19
2023-01-06T07:09:08.715Z,100834.84
2023-01-06T07:11:38.078Z,100829.00
2023-01-06T07:14:10.306Z,100825.63
2023-01-06T07:16:39.715Z,100826.28
2023-01-06T07:19:11.216Z,100829.81
2023-01-06T07:21:41.086Z,100835.75
2023-01-06T07:24:10.698Z,100819.63
2023-01-06T07:26:40.062Z,100823.84
2023-01-06T07:29:12.059Z,100816.97
2023-01-06T07:31:41.481Z,100824.19
2023-01-06T07:34:11.132Z,100824.03
2023-01-06T07:36:40.508Z,100820.56
2023-01-06T07:39:10.022Z,100817.28
2023-01-06T07:41:39.390Z,100818.91
2023-01-06T07:44:08.839Z,100830.94
2023-01-06T07:46:41.383Z,100833.66
2023-01-06T07:49:10.792Z,100828.63
2023-01-06T07:51:40.157Z,100835.41
2023-01-06T07:54:09.844Z,100827.91
2023-01-06T07:56:39.520Z,100834.78
2023-01-06T07:59:09.111Z,100828.94
2023-01-06T08:01:41.303Z,100838.31
2023-01-06T08:04:10.973Z,100839.47
2023-01-06T08:06:42.312Z,100844.34
2023-01-06T08:09:11.985Z,100847.66
2023-01-06T08:11:41.412Z,100837.56
2023-01-06T08:14:11.004Z,100843.06
2023-01-06T08:16:43.951Z,100857.63
2023-01-06T08:19:13.332Z,100851.59
2023-01-06T08:21:42.734Z,100862.50
2023-01-06T08:24:12.623Z,100861.78
2023-01-06T08:26:42.126Z,100864.53
2023-01-06T08:29:11.551Z,100870.63
2023-01-06T08:31:43.554Z,100871.44
2023-01-06T08:34:14.517Z,100858.44
2023-01-06T08:36:44.779Z,100861.16
2023-01-06T08:39:15.795Z,100862.81
2023-01-06T08:41:47.574Z,100869.66
2023-01-06T08:44:16.944Z,100869.50
2023-01-06T08:46:49.335Z,100872.88
2023-01-06T08:49:19.245Z,100870.94
2023-01-06T08:51:49.057Z,100872.88
2023-01-06T08:54:18.565Z,100862.34
2023-01-06T08:56:48.245Z,100858.72
2023-01-06T08:59:20.309Z,100865.81
2023-01-06T09:01:52.474Z,100868.03
2023-01-06T09:04:24.095Z,100859.53
2023-01-06T09:06:54.932Z,100844.94
2023-01-06T09:09:25.057Z,100837.13
2023-01-06T09:11:54.799Z,100833.19
2023-01-06T09:14:24.253Z,100821.47
2023-01-06T09:16:56.443Z,100803.25
2023-01-06T09:19:25.926Z,100807.69
2023-01-06T09:21:55.449Z,100805.09
2023-01-06T09:24:25.205Z,100808.72
2023-01-06T09:26:54.651Z,100812.19
2023-01-06T09:29:25.114Z,100806.97
2023-01-06T09:31:57.201Z,100798.25
2023-01-06T09:34:26.764Z,100807.69
2023-01-06T09:36:56.302Z,100818.91
2023-01-06T09:39:25.782Z,100811.06
2023-01-06T09:42:18.614Z,100813.53
2023-01-06T09:44:51.863Z,100816.19
2023-01-06T09:47:27.274Z,100810.16
2023-01-06T09:50:02.497Z,100805.91
2023-01-06T09:52:35.263Z,100804.94
2023-01-06T09:55:07.976Z,100812.63
2023-01-06T09:57:40.215Z,100811.78
2023-01-06T10:00:19.105Z,100811.59
2023-01-06T10:02:52.936Z,100802.22
2023-01-06T10:05:26.005Z,100807.25
2023-01-06T10:08:01.810Z,100804.88
2023-01-06T10:10:38.438Z,100800.50
2023-01-06T10:13:21.707Z,100797.41
2023-01-06T10:15:56.043Z,100788.88
2023-01-06T10:18:35.831Z,100785.50
2023-01-06T10:21:11.996Z,100800.13
2023-01-06T10:23:59.018Z,100790.34
2023-01-06T10:26:32.518Z,100801.56
2023-01-06T10:29:04.797Z,100796.59
2023-01-06T10:31:37.228Z,100820.69
2023-01-06T10:34:19.104Z,100825.03
2023-01-06T10:36:51.836Z,100840.28
2023-01-06T10:39:23.907Z,100827.44
2023-01-06T10:42:19.684Z,100830.06
2023-01-06T10:44:49.171Z,100846.22
2023-01-06T10:47:23.573Z,100849.19
2023-01-06T10:49:55.601Z,100858.59
2023-01-06T10:52:25.537Z,100883.56
2023-01-06T10:54:58.635Z,100911.84
2023-01-06T10:57:29.781Z,100893.31
2023-01-06T11:00:16.091Z,100888.94
2023-01-06T11:02:47.118Z,100874.53
2023-01-06T11:05:21.987Z,100879.91
2023-01-06T11:07:55.788Z,100872.47
2023-01-06T11:10:40.130Z,100866.38
2023-01-06T11:13:10.393Z,100873.00
2023-01-06T11:15:42.590Z,100869.47
2023-01-06T11:18:22.356Z,100858.31
2023-01-06T11:21:08.174Z,100859.13
2023-01-06T11:23:39.806Z,100839.50
2023-01-06T11:26:18.705Z,100847.19
2023-01-06T11:28:49.402Z,100846.66
2023-01-06T11:31:22.470Z,100845.69
2023-01-06T11:33:54.519Z,100842.78
2023-01-06T11:36:28.582Z,100852.66
2023-01-06T11:38:59.662Z,100850.25
2023-01-06T11:41:32.270Z,100858.16
2023-01-06T11:44:09.875Z,100859.56
2023-01-06T11:46:40.179Z,100861.44
2023-01-06T11:49:13.954Z,100865.78
2023-01-06T11:51:53.312Z,100887.00
2023-01-06T11:54:28.550Z,100864.78
2023-01-06T11:57:20.288Z,100872.47
2023-01-06T11:59:59.109Z,100890.00
2023-01-06T12:02:33.352Z,100913.50
2023-01-06T12:05:05.041Z,100925.00
2023-01-06T12:07:41.570Z,100930.34
2023-01-06T12:10:16.040Z,100960.75
2023-01-06T12:12:45.531Z,100971.28
2023-01-06T12:15:16.352Z,100982.50
2023-01-06T12:17:50.838Z,101005.31
2023-01-06T12:20:23.606Z,101009.28
2023-01-06T12:22:57.464Z,101025.47
2023-01-06T12:25:28.613Z,101041.66
2023-01-06T12:28:02.246Z,101064.31
2023-01-06T12:30:35.428Z,101071.81
2023-01-06T12:33:08.676Z,101072.94
2023-01-06T12:35:39.448Z,101086.78
2023-01-06T12:38:21.485Z,101093.94
2023-01-06T12:40:53.989Z,101101.97
2023-01-06T12:43:25.926Z,101108.16
2023-01-06T12:45:59.787Z,101106.47
2023-01-06T12:48:36.704Z,101129.94
2023-01-06T12:51:10.546Z,101145.13
2023-01-06T12:53:45.835Z,101150.56
2023-01-06T12:56:29.946Z,101155.00
2023-01-06T12:59:09.586Z,101147.16
2023-01-06T13:01:42.655Z,101158.00
2023-01-06T13:04:22.433Z,101158.59
2023-01-06T13:07:01.978Z,101167.03
2023-01-06T13:09:43.884Z,101164.69
2023-01-06T13:12:34.897Z,101160.84
2023-01-06T13:15:08.524Z,101163.88
2023-01-06T13:17:42.950Z,101166.34
2023-01-06T13:20:17.904Z,101172.47
2023-01-06T13:22:58.108Z,101186.56
2023-01-06T13:25:43.878Z,101187.38
2023-01-06T13:28:21.677Z,101193.91
2023-01-06T13:31:12.362Z,101192.38
2023-01-06T13:34:01.582Z,101187.84
2023-01-06T13:36:49.078Z,101184.66
2023-01-06T13:39:19.942Z,101186.25
2023-01-06T13:41:56.068Z,101181.41
2023-01-06T13:44:28.744Z,101189.63
2023-01-06T13:47:03.183Z,101197.31
2023-01-06T13:49:32.940Z,101195.44
2023-01-06T13:52:02.781Z,101193.38
2023-01-06T13:55:06.415Z,101195.63
2023-01-06T13:57:41.017Z,101203.41
2023-01-06T14:00:28.142Z,101196.81
2023-01-06T14:03:27.136Z,101206.69
2023-01-06T14:05:58.213Z,101205.19
2023-01-06T14:08:31.499Z,101202.22
2023-01-06T14:11:06.577Z,101213.69
2023-01-06T14:13:43.376Z,101211.91
2023-01-06T14:16:14.160Z,101214.47
2023-01-06T14:18:45.683Z,101208.75
2023-01-06T14:21:23.191Z,101213.16
2023-01-06T14:23:55.579Z,101211.31
2023-01-06T14:26:25.351Z,101209.91
2023-01-06T14:29:00.740Z,101218.41
2023-01-06T14:31:48.021Z,101223.34
2023-01-06T14:34:20.036Z,101225.50
2023-01-06T14:36:52.543Z,101235.63
2023-01-06T14:39:25.569Z,101233.09
2023-01-06T14:42:00.195Z,101232.97
2023-01-06T14:44:36.759Z,101232.56
2023-01-06T14:47:09.373Z,101226.75
2023-01-06T14:49:46.146Z,101219.84
2023-01-06T14:52:23.028Z,101227.66
2023-01-06T14:54:53.446Z,101212.28
2023-01-06T14:57:27.501Z,101211.38
2023-01-06T15:00:24.300Z,101211.19
2023-01-06T15:02:56.404Z,101207.72
2023-01-06T15:05:29.694Z,101209.72
2023-01-06T15:08:04.399Z,101214.72
2023-01-06T15:10:36.443Z,101215.59
2023-01-06T15:13:05.925Z,101214.03
2023-01-06T15:15:38.788Z,101209.78
2023-01-06T15:18:10.336Z,101203.78
2023-01-06T15:20:43.617Z,101212.16
2023-01-06T15:23:17.586Z,101209.38
2023-01-06T15:25:50.876Z,101205.84
2023-01-06T15:28:27.594Z,101210.28
2023-01-06T15:31:00.354Z,101215.69
2023-01-06T15:33:36.178Z,101216.78
2023-01-06T15:36:05.994Z,101213.91
2023-01-06T15:38:37.232Z,101213.13
2023-01-06T15:41:28.406Z,101207.88
2023-01-06T15:43:58.871Z,101208.56
2023-01-06T15:46:40.135Z,101201.00
2023-01-06T15:49:14.037Z,101208.38
2023-01-06T15:51:43.518Z,101209.06
2023-01-06T15:54:16.776Z,101210.63
2023-01-06T15:56:46.252Z,101206.28
2023-01-06T15:59:17.039Z,101220.09
2023-01-06T16:01:55.126Z,101213.09
2023-01-06T16:04:26.090Z,101215.44
2023-01-06T16:06:55.559Z,101208.38
2023-01-06T16:09:37.712Z,101212.00
2023-01-06T16:12:18.404Z,101211.31
2023-01-06T16:14:54.909Z,101211.41
2023-01-06T16:17:31.964Z,101208.84
2023-01-06T16:20:03.288Z,101206.19
2023-01-06T16:22:35.920Z,101215.84
2023-01-06T16:25:07.398Z,101213.94
2023-01-06T16:27:37.007Z,101219.78
2023-01-06T16:30:12.096Z,101232.50
2023-01-06T16:32:46.897Z,101233.78
2023-01-06T16:35:18.118Z,101241.78
2023-01-06T16:37:47.911Z,101242.88
2023-01-06T16:40:18.666Z,101247.91
2023-01-06T16:42:48.732Z,101252.25
2023-01-06T16:45:25.939Z,101249.56
2023-01-06T16:47:58.546Z,101252.25
2023-01-06T16:50:30.128Z,101247.78
2023-01-06T16:53:05.745Z,101246.91
2023-01-06T16:55:35.301Z,101250.47
2023-01-06T16:58:08.714Z,101237.53
2023-01-06T17:00:44.021Z,101246.38
2023-01-06T17:03:19.451Z,101259.31
2023-01-06T17:05:49.366Z,101246.09
2023-01-06T17:08:20.378Z,101246.09
2023-01-06T17:10:49.994Z,101252.97
2023-01-06T17:13:32.455Z,101255.28
2023-01-06T17:16:03.443Z,101261.56
2023-01-06T17:18:36.891Z,101262.56
2023-01-06T17:21:14.079Z,101257.22
2023-01-06T17:23:46.151Z,101248.75
2023-01-06T17:26:18.259Z,101251.88
2023-01-06T17:28:48.471Z,101255.22
2023-01-06T17:31:20.203Z,101254.03
2023-01-06T17:33:52.227Z,101258.38
2023-01-06T17:36:25.698Z,101256.69
2023-01-06T17:38:55.179Z,101264.84
2023-01-06T17:41:24.559Z,101256.16
2023-01-06T17:43:53.923Z,101243.16
2023-01-06T17:46:28.623Z,101252.63
2023-01-06T17:49:06.001Z,101255.16
2023-01-06T17:51:35.408Z,101260.19
2023-01-06T17:54:17.323Z,101260.28
2023-01-06T17:56:46.867Z,101262.84
2023-01-06T17:59:18.075Z,101264.44
2023-01-06T18:01:47.740Z,101254.75
2023-01-06T18:04:19.850Z,101262.66
2023-01-06T18:06:52.853Z,101266.44
2023-01-06T18:09:25.580Z,101254.88
2023-01-06T18:11:56.023Z,101253.09
2023-01-06T18:14:28.211Z,101253.78
2023-01-06T18:16:59.707Z,101253.34
2023-01-06T18:19:34.897Z,101245.34
2023-01-06T18:22:06.471Z,101250.47
2023-01-06T18:24:38.958Z,101242.00
2023-01-06T18:27:16.162Z,101248.25
2023-01-06T18:29:47.137Z,101246.59
2023-01-06T18:32:32.300Z,101254.38
2023-01-06T18:35:06.342Z,101255.94
2023-01-06T18:37:38.677Z,101251.72
2023-01-06T18:40:10.865Z,101256.50
2023-01-06T18:42:44.523Z,101258.06
2023-01-06T18:45:21.596Z,101261.59
2023-01-06T18:47:53.822Z,101249.16
2023-01-06T18:50:36.907Z,101248.16
2023-01-06T18:53:12.712Z,101255.84
2023-01-06T18:55:45.337Z,101250.63
2023-01-06T18:58:22.061Z,101251.16
2023-01-06T19:00:55.496Z,101238.25
2023-01-06T19:03:40.555Z,101234.47
2023-01-06T19:06:38.714Z,101227.59
2023-01-06T19:09:19.840Z,101238.38
2023-01-06T19:11:50.107Z,101228.13
2023-01-06T19:14:21.157Z,101230.16
2023-01-06T19:16:54.070Z,101238.69
2023-01-06T19:19:27.609Z,101247.94
2023-01-06T19:22:09.968Z,101239.94
2023-01-06T19:24:46.135Z,101241.03
2023-01-06T19:27:40.618Z,101236.72
2023-01-06T19:30:34.155Z,101232.94
2023-01-06T19:33:17.847Z,101238.28
2023-01-06T19:35:47.423Z,101229.94
2023-01-06T19:38:27.601Z,101229.81
2023-01-06T19:40:58.394Z,101237.06
2023-01-06T19:43:30.250Z,101227.38
2023-01-06T19:45:59.808Z,101240.16
2023-01-06T19:48:30.556Z,101225.84
2023-01-06T19:51:11.418Z,101230.72
2023-01-06T19:53:46.304Z,101235.38
2023-01-06T19:56:21.695Z,101224.16
2023-01-06T19:58:54.468Z,101213.81
2023-01-06T20:01:24.766Z,101215.59
2023-01-06T20:03:56.285Z,101215.28
2023-01-06T20:06:26.324Z,101200.72
2023-01-06T20:08:58.380Z,101202.69
2023-01-06T20:11:27.784Z,101195.13
2023-01-06T20:13:57.654Z,101190.03
2023-01-06T20:16:27.074Z,101192.47
2023-01-06T20:18:56.530Z,101191.81
2023-01-06T20:21:25.948Z,101198.50
2023-01-06T20:23:58.961Z,101190.25
2023-01-06T20:26:28.686Z,101191.94
2023-01-06T20:28:58.131Z,101187.69
2023-01-06T20:31:27.567Z,101187.69
2023-01-06T20:33:57.056Z,101188.91
2023-01-06T20:36:26.553Z,101191.34
2023-01-06T20:38:58.993Z,101196.38
2023-01-06T20:41:28.518Z,101195.38
2023-01-06T20:43:57.982Z,101196.59
2023-01-06T20:46:27.732Z,101189.28
2023-01-06T20:48:57.328Z,101176.72
2023-01-06T20:51:26.817Z,101183.28
2023-01-06T20:53:58.846Z,101185.59
2023-01-06T20:56:28.315Z,101170.56
2023-01-06T20:58:57.693Z,101170.38
2023-01-06T21:01:27.229Z,101175.38
2023-01-06T21:03:57.124Z,101170.47
2023-01-06T21:06:26.590Z,101152.28
2023-01-06T21:08:58.534Z,101139.81
2023-01-06T21:11:27.953Z,101135.28
2023-01-06T21:13:57.374Z,101149.75
2023-01-06T21:16:26.967Z,101178.66
2023-01-06T21:18:57.456Z,101189.53
2023-01-06T21:21:26.988Z,101200.84
2023-01-06T21:24:00.407Z,101208.03
2023-01-06T21:26:30.141Z,101210.94
2023-01-06T21:28:59.658Z,101219.59
2023-01-06T21:31:29.278Z,101224.59
2023-01-06T21:33:58.689Z,101210.38
2023-01-06T21:36:28.159Z,101210.25
2023-01-06T21:39:00.180Z,101209.38
2023-01-06T21:41:42.116Z,101210.38
2023-01-06T21:44:11.873Z,101207.38
2023-01-06T21:46:42.114Z,101210.94
2023-01-06T21:49:11.588Z,101206.94
2023-01-06T21:51:41.821Z,101201.59
2023-01-06T21:54:13.844Z,101194.69
2023-01-06T21:56:43.385Z,101203.59
2023-01-06T21:59:12.885Z,101205.38
2023-01-06T22:01:42.447Z,101209.50
2023-01-06T22:04:12.057Z,101201.03
2023-01-06T22:06:43.409Z,101194.94
2023-01-06T22:09:17.218Z,101194.03
2023-01-06T22:11:47.404Z,101191.38
2023-01-06T22:14:18.022Z,101191.47
2023-01-06T22:16:48.241Z,101189.59
2023-01-06T22:19:18.508Z,101202.25
2023-01-06T22:21:49.181Z,101187.94
2023-01-06T22:24:21.459Z,101191.25
2023-01-06T22:26:51.115Z,101170.78
2023-01-06T22:29:20.525Z,101181.81
2023-01-06T22:31:49.940Z,101189.38
2023-01-06T22:34:19.372Z,101184.50
2023-01-06T22:36:48.813Z,101177.25
2023-01-06T22:39:20.839Z,101186.72
2023-01-06T22:41:50.221Z,101178.47
2023-01-06T22:44:19.616Z,101178.44
2023-01-06T22:46:49.035Z,101184.25
2023-01-06T22:49:18.408Z,101192.69
2023-01-06T22:51:47.771Z,101195.03
2023-01-06T22:54:17.246Z,101196.69
2023-01-06T22:56:49.392Z,101196.94
2023-01-06T22:59:18.940Z,101194.03
2023-01-06T23:01:48.419Z,101182.72
2023-01-06T23:04:17.884Z,101188.13
2023-01-06T23:06:47.491Z,101184.59
2023-01-06T23:09:16.900Z,101181.69
2023-01-06T23:11:49.239Z,101189.25
2023-01-06T23:14:19.484Z,101190.38
2023-01-06T23:16:48.923Z,101188.91
2023-01-06T23:19:19.543Z,101181.38
2023-01-06T23:21:49.084Z,101176.81
2023-01-06T23:24:18.498Z,101167.31
2023-01-06T23:26:50.651Z,101168.72
2023-01-06T23:29:20.078Z,101165.50
2023-01-06T23:31:49.787Z,101169.56
2023-01-06T23:34:20.566Z,101176.25
2023-01-06T23:36:50.463Z,101176.50
2023-01-06T23:39:20.024Z,101182.16
2023-01-06T23:41:52.104Z,101177.59
2023-01-06T23:44:22.136Z,101178.00
2023-01-06T23:46:51.903Z,101174.25
2023-01-06T23:49:21.510Z,101168.25
2023-01-06T23:51:50.944Z,101167.38
2023-01-06T23:54:20.369Z,101161.16
2023-01-06T23:56:52.420Z,101156.81
2023-01-06T23:59:21.794Z,101140.03
